TimeCST,TemperatureF,Dew PointF,Humidity,Sea Level PressureIn,VisibilityMPH,Wind Direction,Wind SpeedMPH,Gust SpeedMPH,PrecipitationIn,Events,Conditions,WindDirDegrees,DateUTC
12:56 AM,33.1,28.0,82,30.36,10.0,Calm,Calm,-,N/A,,Clear,0,2012-12-31 06:56:00
1:56 AM,35.1,28.0,76,30.36,10.0,Calm,Calm,-,N/A,,Clear,0,2012-12-31 07:56:00
2:56 AM,35.1,27.0,72,30.34,10.0,Calm,Calm,-,N/A,,Clear,0,2012-12-31 08:56:00
3:56 AM,35.1,27.0,72,30.34,10.0,Calm,Calm,-,N/A,,Clear,0,2012-12-31 09:56:00
4:56 AM,35.1,28.0,76,30.35,10.0,ESE,3.5,-,N/A,,Clear,110,2012-12-31 10:56:00
5:56 AM,34.0,28.9,82,30.33,10.0,SE,4.6,-,N/A,,Clear,130,2012-12-31 11:56:00
6:56 AM,36.0,28.0,73,30.34,9.0,Calm,Calm,-,N/A,,Clear,0,2012-12-31 12:56:00
7:56 AM,42.1,33.1,70,30.34,9.0,ESE,4.6,-,N/A,,Clear,120,2012-12-31 13:56:00
8:56 AM,48.0,35.1,61,30.36,10.0,SE,4.6,-,N/A,,Clear,130,2012-12-31 14:56:00
9:26 AM,50.0,35.6,58,30.36,10.0,Calm,Calm,-,N/A,,Mostly Cloudy,0,2012-12-31 15:26:00
9:56 AM,51.1,36.0,56,30.37,10.0,Calm,Calm,-,N/A,,Overcast,0,2012-12-31 15:56:00
10:56 AM,53.1,37.9,57,30.35,10.0,Calm,Calm,-,N/A,,Overcast,0,2012-12-31 16:56:00
11:16 AM,53.6,39.2,58,30.33,10.0,Calm,Calm,-,N/A,,Overcast,0,2012-12-31 17:16:00
11:56 AM,57.9,42.1,56,30.30,10.0,SSE,3.5,-,N/A,,Overcast,150,2012-12-31 17:56:00
12:56 PM,60.1,43.0,53,30.26,10.0,Calm,Calm,-,N/A,,Mostly Cloudy,0,2012-12-31 18:56:00
1:33 PM,60.8,44.6,55,30.24,10.0,Calm,Calm,-,N/A,,Mostly Cloudy,0,2012-12-31 19:33:00
1:48 PM,60.8,44.6,55,30.24,10.0,Calm,Calm,-,N/A,,Overcast,0,2012-12-31 19:48:00
1:56 PM,61.0,44.1,54,30.23,10.0,Calm,Calm,-,N/A,,Overcast,0,2012-12-31 19:56:00
2:14 PM,60.8,44.6,55,30.22,10.0,Variable,3.5,-,N/A,,Overcast,0,2012-12-31 20:14:00
2:56 PM,60.1,45.0,57,30.21,10.0,SSE,4.6,-,N/A,,Overcast,150,2012-12-31 20:56:00
3:12 PM,60.8,44.6,55,30.22,10.0,SE,3.5,-,N/A,,Overcast,130,2012-12-31 21:12:00
3:56 PM,60.1,46.0,60,30.21,9.0,SE,3.5,-,N/A,,Overcast,140,2012-12-31 21:56:00
4:10 PM,60.8,46.4,59,30.21,10.0,Calm,Calm,-,N/A,,Overcast,0,2012-12-31 22:10:00
4:51 PM,59.0,46.4,63,30.21,10.0,Calm,Calm,-,N/A,,Overcast,0,2012-12-31 22:51:00
4:56 PM,59.0,46.9,64,30.21,10.0,Calm,Calm,-,N/A,,Overcast,0,2012-12-31 22:56:00
5:07 PM,57.2,46.4,67,30.21,10.0,Calm,Calm,-,N/A,,Overcast,0,2012-12-31 23:07:00
5:56 PM,57.9,48.0,70,30.22,9.0,Calm,Calm,-,N/A,,Overcast,0,2012-12-31 23:56:00
6:11 PM,57.2,48.2,72,30.22,9.0,Calm,Calm,-,N/A,,Overcast,0,2013-01-01 00:11:00
6:56 PM,57.0,48.0,72,30.22,10.0,Calm,Calm,-,N/A,,Overcast,0,2013-01-01 00:56:00
7:56 PM,55.9,46.9,72,30.20,10.0,SE,4.6,-,N/A,,Overcast,130,2013-01-01 01:56:00
8:56 PM,55.9,46.9,72,30.18,7.0,SSE,5.8,-,N/A,,Overcast,150,2013-01-01 02:56:00
9:56 PM,55.9,46.9,72,30.16,9.0,SE,5.8,-,N/A,,Scattered Clouds,140,2013-01-01 03:56:00
10:56 PM,55.9,48.0,75,30.14,9.0,SSE,4.6,-,N/A,,Clear,160,2013-01-01 04:56:00
11:56 PM,57.0,48.9,74,30.13,9.0,Calm,Calm,-,N/A,,Mostly Cloudy,0,2013-01-01 05:56:00